Terminal Aerodrome Forecast
Issued by NWS

Home | Current Version | Previous Version | Text Only | Print | Product List | Glossary On
Versions: 1 2 3 4 5 6 7 8 9 10 11 12 13
000
FTUS43 KMPX 232300
TAFRWF
TAF
KRWF 232335Z 2400/2424 17010KT P6SM VCSH OVC050
     FM240500 16012KT P6SM SCT025 OVC040
     FM241500 18012KT P6SM BKN050=

USA.gov is the U.S. government's official web portal to all federal, state and local government web resources and services.